Time;durP1;ratioP1;P1;durP2;ratioP2;P2;SDS_P1;SDS_P2;PMS_P1;PMS_P2;Temp;Humidity;BMP_temperature;BMP_pressure;BME280_temperature;BME280_humidity;BME280_pressure;Samples;Min_cycle;Max_cycle;Signal;HPM_P1;HPM_P2
2022/11/29 08:24:57;;;;;;;258.27;31.20;;;7.00;99.90;;;;;;6091901;23;20367;-87
2022/11/29 08:27:29;;;;;;;226.33;24.67;;;7.80;99.90;;;;;;6070387;23;20026;-87
2022/11/29 08:29:55;;;;;;;239.13;27.40;;;7.00;99.90;;;;;;6070029;23;20022;-86
2022/11/29 08:32:39;;;;;;;233.83;29.83;;;6.60;99.90;;;;;;6092765;23;20025;-87
2022/11/29 08:39:16;;;;;;;180.75;26.17;;;7.00;99.90;;;;;;6104574;23;20073;-87
2022/11/29 08:42:06;;;;;;;201.55;27.08;;;8.90;99.90;;;;;;6105333;23;20053;-88
2022/11/29 08:44:46;;;;;;;166.60;21.87;;;7.00;99.90;;;;;;6122867;23;20161;-87
2022/11/29 08:50:21;;;;;;;175.77;24.37;;;6.60;99.90;;;;;;6122459;23;20026;-86
2022/11/29 08:56:19;;;;;;;152.70;20.97;;;7.20;99.90;;;;;;6219726;23;20438;-87
2022/11/29 08:58:51;;;;;;;147.63;21.07;;;6.60;99.90;;;;;;6214735;23;20042;-86
2022/11/29 09:01:32;;;;;;;134.27;25.10;;;6.10;99.90;;;;;;6214011;23;20017;-86
2022/11/29 09:04:21;;;;;;;124.55;22.88;;;7.30;99.90;;;;;;6214672;23;20047;-85
2022/11/29 09:07:05;;;;;;;145.57;25.67;;;7.20;99.90;;;;;;6191176;23;20021;-85
2022/11/29 09:10:19;;;;;;;127.20;22.17;;;6.10;99.90;;;;;;6188501;23;20016;-86
2022/11/29 09:12:57;;;;;;;126.53;24.27;;;6.90;99.90;;;;;;6084426;23;20031;-87
2022/11/29 09:15:40;;;;;;;115.10;22.07;;;6.60;99.90;;;;;;6191654;23;20048;-85
2022/11/29 09:18:27;;;;;;;112.83;18.53;;;6.30;99.90;;;;;;6189523;23;20421;-86
2022/11/29 09:20:55;;;;;;;117.80;20.70;;;6.60;99.90;;;;;;6214035;23;20020;-86
2022/11/29 09:23:29;;;;;;;137.27;22.47;;;7.60;99.90;;;;;;6215398;23;20028;-86
2022/11/29 09:26:41;;;;;;;109.47;18.10;;;6.80;99.90;;;;;;6188956;23;20092;-88
2022/11/29 09:29:28;;;;;;;130.43;20.17;;;7.10;99.90;;;;;;6187416;23;20349;-88
2022/11/29 09:35:24;;;;;;;135.30;23.23;;;6.70;99.90;;;;;;6148994;23;20020;-86
2022/11/29 09:38:02;;;;;;;120.47;19.40;;;6.10;99.90;;;;;;6187468;23;20020;-86
2022/11/29 09:40:47;;;;;;;121.60;20.73;;;6.70;99.90;;;;;;6186522;23;20016;-86
2022/11/29 09:43:31;;;;;;;132.30;22.77;;;8.40;99.90;;;;;;6189068;23;20094;-86
2022/11/29 09:46:18;;;;;;;120.10;22.83;;;8.60;99.90;;;;;;6216916;23;20091;-86
2022/11/29 09:49:18;;;;;;;94.40;18.53;;;7.10;99.90;;;;;;6215261;23;20016;-86
2022/11/29 09:52:25;;;;;;;107.97;21.07;;;7.20;99.90;;;;;;6188425;23;20079;-86
2022/11/29 09:55:26;;;;;;;88.70;18.33;;;7.10;99.90;;;;;;6070551;23;20107;-87
2022/11/29 09:58:04;;;;;;;77.53;19.50;;;7.20;99.90;;;;;;6095357;23;20022;-86
2022/11/29 10:00:55;;;;;;;77.50;19.17;;;7.10;99.90;;;;;;6167735;23;20342;-86
2022/11/29 10:03:59;;;;;;;83.27;17.67;;;7.30;99.90;;;;;;6215225;23;20021;-86
2022/11/29 10:06:37;;;;;;;89.32;23.33;;;6.60;99.90;;;;;;6190507;23;20010;-86
2022/11/29 10:09:17;;;;;;;94.27;24.10;;;7.30;99.90;;;;;;6189792;23;20017;-86
2022/11/29 10:12:24;;;;;;;106.67;28.63;;;8.10;99.90;;;;;;6188818;23;20050;-86
2022/11/29 10:15:19;;;;;;;92.93;27.07;;;7.50;99.90;;;;;;6216658;23;20064;-86
2022/11/29 10:18:02;;;;;;;95.30;29.40;;;8.00;99.90;;;;;;6188534;23;20020;-86
2022/11/29 10:20:49;;;;;;;62.47;16.05;;;7.60;99.90;;;;;;6189639;23;20071;-86
2022/11/29 10:23:38;;;;;;;69.40;20.13;;;7.20;99.90;;;;;;6189851;23;20040;-86
2022/11/29 10:26:17;;;;;;;76.03;20.30;;;7.20;99.90;;;;;;6189206;23;20025;-86
2022/11/29 10:28:58;;;;;;;71.50;17.73;;;8.60;99.90;;;;;;6189410;23;20013;-86
2022/11/29 10:31:42;;;;;;;68.40;21.63;;;7.60;99.90;;;;;;6188901;23;20499;-86
2022/11/29 10:34:22;;;;;;;63.60;19.63;;;7.80;99.90;;;;;;6216708;23;20040;-86
2022/11/29 10:37:01;;;;;;;63.43;17.27;;;7.50;99.90;;;;;;6217438;23;20312;-86
2022/11/29 10:40:03;;;;;;;;;;;;;;;;;;;;;
2022/11/29 10:46:02;;;;;;;;;;;;;;;;;;;;;
2022/11/29 10:49:14;;;;;;;71.37;23.93;;;8.60;99.90;;;;;;6167425;23;20329;-85
2022/11/29 10:51:45;;;;;;;66.90;22.98;;;9.00;99.90;;;;;;6219385;23;20025;-86
2022/11/29 10:54:57;;;;;;;54.40;23.20;;;7.40;99.90;;;;;;6190655;23;20017;-86
2022/11/29 10:58:18;;;;;;;52.80;21.13;;;7.90;99.90;;;;;;6189117;23;20027;-87
2022/11/29 11:01:21;;;;;;;47.47;15.70;;;7.80;99.90;;;;;;6188542;23;20027;-84
2022/11/29 11:04:07;;;;;;;54.97;21.40;;;7.60;99.90;;;;;;6215560;23;20523;-86
2022/11/29 11:07:00;;;;;;;47.60;19.43;;;7.50;99.90;;;;;;6187785;23;20017;-85
2022/11/29 11:09:45;;;;;;;44.87;16.23;;;7.50;99.90;;;;;;6216108;23;20074;-85
2022/11/29 11:12:42;;;;;;;48.53;17.43;;;7.80;99.90;;;;;;6189275;23;20013;-85
2022/11/29 11:15:23;;;;;;;45.63;17.50;;;7.00;99.90;;;;;;6188336;23;20021;-85
2022/11/29 11:18:03;;;;;;;52.80;21.37;;;7.70;99.90;;;;;;6215496;23;20071;-85
2022/11/29 11:20:31;;;;;;;43.43;14.90;;;8.00;99.90;;;;;;6188534;23;20337;-85
2022/11/29 11:22:58;;;;;;;46.70;17.83;;;8.00;99.90;;;;;;6188836;23;20013;-85
2022/11/29 11:25:37;;;;;;;50.13;18.83;;;8.10;99.90;;;;;;6190475;23;20348;-87
2022/11/29 11:28:28;;;;;;;40.27;15.37;;;9.00;99.90;;;;;;6213732;23;20021;-86
2022/11/29 11:30:56;;;;;;;38.63;15.97;;;8.60;99.90;;;;;;6188613;23;20023;-86
2022/11/29 11:33:25;;;;;;;39.80;16.27;;;8.20;99.90;;;;;;6188776;23;20017;-85
2022/11/29 11:36:15;;;;;;;32.77;13.20;;;8.20;99.90;;;;;;6187582;23;20070;-86
2022/11/29 11:38:51;;;;;;;35.95;14.55;;;8.30;99.90;;;;;;6188226;23;20507;-85
2022/11/29 11:41:20;;;;;;;40.67;16.63;;;8.30;99.90;;;;;;6187673;23;20337;-85
2022/11/29 11:43:55;;;;;;;36.00;15.53;;;8.30;99.90;;;;;;6215604;23;20102;-86
2022/11/29 11:46:20;;;;;;;36.27;15.33;;;8.30;99.90;;;;;;6188763;23;20021;-85
2022/11/29 11:48:47;;;;;;;38.90;13.30;;;8.20;99.90;;;;;;6186899;23;20013;-86
2022/11/29 11:51:24;;;;;;;79.60;41.38;;;8.20;99.90;;;;;;6188244;23;20095;-86
2022/11/29 11:54:06;;;;;;;33.63;14.65;;;8.80;99.90;;;;;;6188361;23;20017;-84
2022/11/29 11:57:22;;;;;;;32.28;14.18;;;8.30;99.90;;;;;;6214470;23;20012;-86
2022/11/29 12:00:33;;;;;;;35.58;14.07;;;8.80;99.90;;;;;;6163839;23;20020;-86
2022/11/29 12:02:59;;;;;;;27.00;12.23;;;7.80;99.90;;;;;;6168597;23;20110;-87
2022/11/29 12:05:25;;;;;;;30.00;12.77;;;8.30;99.90;;;;;;6188216;23;20019;-87
2022/11/29 12:08:19;;;;;;;33.60;13.23;;;8.40;99.90;;;;;;6188291;23;20013;-86
2022/11/29 12:10:51;;;;;;;34.97;14.07;;;8.10;99.90;;;;;;6214557;23;20013;-86
2022/11/29 12:13:26;;;;;;;39.53;22.25;;;8.10;99.90;;;;;;6215441;23;20012;-86
2022/11/29 12:16:09;;;;;;;28.23;11.95;;;8.00;99.90;;;;;;6215302;23;20464;-86
2022/11/29 12:19:01;;;;;;;29.57;12.47;;;8.20;99.90;;;;;;6214895;23;20092;-87
2022/11/29 12:22:18;;;;;;;29.95;12.23;;;7.90;99.90;;;;;;6193704;23;20017;-86
2022/11/29 12:25:13;;;;;;;29.97;12.13;;;8.20;99.90;;;;;;6191571;23;20028;-86
2022/11/29 12:27:45;;;;;;;29.38;12.02;;;8.30;99.90;;;;;;6219003;23;20044;-87
2022/11/29 12:30:13;;;;;;;26.50;12.17;;;8.20;99.90;;;;;;6215040;23;20008;-85
2022/11/29 12:33:13;;;;;;;30.98;10.55;;;8.20;99.90;;;;;;6164063;23;20021;-85
2022/11/29 12:35:52;;;;;;;23.13;9.83;;;8.20;99.90;;;;;;6188031;23;20017;-85
2022/11/29 12:38:34;;;;;;;28.15;11.25;;;8.30;99.90;;;;;;6214395;23;20009;-85
2022/11/29 12:41:23;;;;;;;25.13;9.87;;;8.20;99.90;;;;;;6214544;23;20024;-85
2022/11/29 12:44:05;;;;;;;25.93;10.50;;;8.20;99.90;;;;;;6187892;23;20074;-85
2022/11/29 12:46:32;;;;;;;29.27;11.47;;;9.20;99.90;;;;;;6187297;23;20012;-85
2022/11/29 12:49:25;;;;;;;31.90;14.37;;;8.40;99.90;;;;;;6188092;23;20103;-85
2022/11/29 12:59:46;;;;;;;37.00;12.93;;;8.20;99.90;;;;;;6126801;23;20026;-86
2022/11/29 13:02:38;;;;;;;42.20;23.47;;;8.20;99.90;;;;;;6152393;23;20021;-86
2022/11/29 13:05:28;;;;;;;34.47;12.73;;;8.20;99.90;;;;;;6173044;23;20035;-85
2022/11/29 13:08:27;;;;;;;32.03;12.37;;;8.30;99.90;;;;;;6245238;23;20031;-86
2022/11/29 13:10:58;;;;;;;30.50;11.52;;;8.30;99.90;;;;;;6244938;23;20449;-85
2022/11/29 13:13:48;;;;;;;28.47;11.87;;;9.50;99.90;;;;;;6217306;23;20024;-87
2022/11/29 13:16:36;;;;;;;30.17;11.77;;;8.00;99.90;;;;;;6218341;23;20349;-86
2022/11/29 13:19:46;;;;;;;32.08;12.80;;;8.30;99.90;;;;;;6218064;23;20062;-86
2022/11/29 13:22:57;;;;;;;33.87;12.90;;;8.20;99.90;;;;;;6098413;23;20077;-87
2022/11/29 13:25:35;;;;;;;38.77;12.90;;;8.40;99.90;;;;;;6122787;23;20116;-88
2022/11/29 13:28:36;;;;;;;34.43;12.60;;;9.70;99.90;;;;;;6122440;23;20033;-89
2022/11/29 13:31:25;;;;;;;34.33;14.27;;;9.00;99.90;;;;;;6098192;23;20040;-89
2022/11/29 13:34:20;;;;;;;35.13;12.53;;;8.30;99.90;;;;;;6098070;23;20347;-86
2022/11/29 13:40:54;;;;;;;40.83;17.67;;;8.40;99.90;;;;;;6131983;22;21660;-88
2022/11/29 13:44:09;;;;;;;49.43;17.63;;;7.80;99.90;;;;;;6204759;23;20091;-88
2022/11/29 13:47:43;;;;;;;43.97;17.13;;;8.50;99.90;;;;;;6216296;23;20016;-88
2022/11/29 13:54:53;;;;;;;70.43;31.27;;;9.10;99.90;;;;;;6215264;23;20066;-88
2022/11/29 13:58:15;;;;;;;35.00;13.80;;;7.80;99.90;;;;;;6212467;23;20020;-88
2022/11/29 14:01:15;;;;;;;44.78;15.80;;;8.60;99.90;;;;;;6213995;23;20024;-88
2022/11/29 14:04:21;;;;;;;34.17;14.15;;;7.80;99.90;;;;;;6187457;23;20021;-87
2022/11/29 14:07:14;;;;;;;38.77;13.83;;;8.70;99.90;;;;;;6186351;23;20020;-88
2022/11/29 14:09:55;;;;;;;38.43;16.97;;;8.60;99.90;;;;;;6186967;23;20087;-89
2022/11/29 14:12:37;;;;;;;34.77;15.30;;;9.50;99.90;;;;;;6187143;23;20021;-87
2022/11/29 14:15:47;;;;;;;41.72;18.10;;;8.30;99.90;;;;;;6186685;23;20013;-87
2022/11/29 14:19:05;;;;;;;35.92;18.15;;;8.70;99.90;;;;;;6186516;23;20025;-87
2022/11/29 14:22:43;;;;;;;30.13;13.20;;;8.20;99.90;;;;;;6125299;23;20053;-88
2022/11/29 14:28:31;;;;;;;27.48;12.57;;;8.60;99.90;;;;;;6062790;23;20027;-88
2022/11/29 14:31:49;;;;;;;25.30;11.60;;;7.90;99.90;;;;;;6064968;23;20034;-88
2022/11/29 14:37:29;;;;;;;27.87;12.20;;;8.60;99.90;;;;;;6262123;22;20047;-88
2022/11/29 14:40:39;;;;;;;25.90;12.13;;;7.80;99.90;;;;;;6248585;22;20026;-87
2022/11/29 14:46:35;;;;;;;85.43;30.40;;;8.40;99.90;;;;;;6274841;22;20027;-88
2022/11/29 14:55:07;;;;;;;26.05;13.07;;;8.60;99.90;;;;;;6257085;22;20024;-88
2022/11/29 14:57:52;;;;;;;23.23;11.30;;;9.80;99.90;;;;;;6248347;22;20027;-88
2022/11/29 15:00:46;;;;;;;21.75;10.65;;;8.70;99.90;;;;;;6249227;22;20019;-88
2022/11/29 15:03:33;;;;;;;22.88;11.98;;;8.40;99.90;;;;;;6247968;22;20016;-88
2022/11/29 15:06:53;;;;;;;18.40;9.67;;;8.10;99.90;;;;;;6275029;22;20023;-89
2022/11/29 15:09:44;;;;;;;23.10;11.13;;;7.70;99.90;;;;;;6161110;23;20021;-89
2022/11/29 15:16:21;;;;;;;18.83;9.17;;;9.20;99.90;;;;;;6161412;23;20135;-88
2022/11/29 15:19:41;;;;;;;19.43;11.37;;;9.40;99.90;;;;;;6181772;23;20072;-88
2022/11/29 15:23:02;;;;;;;18.60;9.52;;;8.20;99.90;;;;;;6156795;23;20419;-88
2022/11/29 15:25:45;;;;;;;17.20;10.13;;;8.10;99.90;;;;;;6274401;22;20193;-88
2022/11/29 15:28:27;;;;;;;20.23;10.93;;;7.80;99.90;;;;;;6275539;22;20562;-88
2022/11/29 15:31:22;;;;;;;19.00;10.80;;;9.40;99.90;;;;;;6275701;22;20011;-88
2022/11/29 15:34:41;;;;;;;19.97;11.37;;;8.10;99.90;;;;;;6251198;22;20019;-88
2022/11/29 15:37:53;;;;;;;20.37;11.70;;;7.40;99.90;;;;;;6248510;22;20478;-88
2022/11/29 15:40:51;;;;;;;21.97;11.47;;;7.80;99.90;;;;;;6271594;22;20434;-88
2022/11/29 15:43:42;;;;;;;20.47;12.80;;;7.70;99.90;;;;;;6254233;22;20386;-89
2022/11/29 15:46:25;;;;;;;20.90;11.80;;;7.50;99.90;;;;;;6276419;22;20050;-88
2022/11/29 15:49:42;;;;;;;19.23;11.00;;;8.90;99.90;;;;;;6248752;22;20012;-89
2022/11/29 15:54:53;;;;;;;17.63;10.03;;;7.70;99.90;;;;;;6185690;23;20442;-90
2022/11/29 15:57:52;;;;;;;26.47;13.97;;;9.30;99.90;;;;;;6159594;23;20028;-89
2022/11/29 16:00:32;;;;;;;23.03;13.77;;;8.00;99.90;;;;;;6186871;23;20021;-90
2022/11/29 16:03:06;;;;;;;22.63;13.40;;;7.60;99.90;;;;;;6161847;23;20028;-89
2022/11/29 16:05:33;;;;;;;;;;;8.80;99.90;;;;;;6159867;23;20348;-90
2022/11/29 16:08:34;;;;;;;19.67;11.90;;;7.30;99.90;;;;;;6157527;23;19916;-89
2022/11/29 16:11:09;;;;;;;20.37;12.80;;;7.50;99.90;;;;;;6158892;23;20017;-90
2022/11/29 16:14:22;;;;;;;21.40;12.67;;;6.90;99.90;;;;;;6184505;23;20448;-89
2022/11/29 16:16:54;;;;;;;21.90;13.50;;;7.30;99.90;;;;;;6049634;23;20068;-90
2022/11/29 16:19:35;;;;;;;23.50;14.43;;;7.10;99.90;;;;;;6041537;23;21014;-89
2022/11/29 16:22:22;;;;;;;22.90;14.07;;;7.20;99.90;;;;;;6087263;23;20030;-88
2022/11/29 16:25:26;;;;;;;22.30;13.50;;;7.30;99.90;;;;;;6067809;23;20023;-87
2022/11/29 16:27:52;;;;;;;22.97;13.00;;;7.40;99.90;;;;;;6140563;23;20021;-86
2022/11/29 16:30:25;;;;;;;24.13;13.97;;;9.00;99.90;;;;;;6156412;23;20558;-87
2022/11/29 16:33:03;;;;;;;25.10;13.97;;;7.20;99.90;;;;;;6184685;23;20020;-88
2022/11/29 16:35:33;;;;;;;20.97;13.00;;;7.20;99.90;;;;;;6157757;23;20017;-87
2022/11/29 16:38:42;;;;;;;25.03;14.43;;;6.60;99.90;;;;;;6157726;23;20115;-87
2022/11/29 16:41:40;;;;;;;26.67;14.53;;;7.50;99.90;;;;;;6138477;23;20017;-90
2022/11/29 16:44:48;;;;;;;23.93;13.50;;;7.20;99.90;;;;;;6172553;23;20025;-90
2022/11/29 16:47:26;;;;;;;25.50;14.63;;;6.90;99.90;;;;;;6182575;23;20060;-88
2022/11/29 16:50:00;;;;;;;26.73;17.00;;;6.80;99.90;;;;;;6186322;23;20432;-88
2022/11/29 16:52:45;;;;;;;23.23;13.73;;;6.60;99.90;;;;;;6186533;23;20044;-88
2022/11/29 16:55:11;;;;;;;24.93;14.43;;;7.20;99.90;;;;;;6192354;23;20020;-87
2022/11/29 16:57:47;;;;;;;25.00;14.33;;;7.10;99.90;;;;;;6188849;23;20025;-89
2022/11/29 17:00:54;;;;;;;25.47;15.03;;;7.80;99.90;;;;;;6188259;23;20307;-93
2022/11/29 17:10:25;;;;;;;28.40;16.17;;;6.00;99.90;;;;;;6001634;23;20232;-91
2022/11/29 21:55:46;;;;;;;31.95;15.02;;;6.00;99.90;;;;;;6122007;23;20584;-89
2022/11/29 21:58:28;;;;;;;;;;;;;;;;;;;;;
2022/11/29 22:06:22;;;;;;;;;;;;;;;;;;;;;
2022/11/29 22:16:25;;;;;;;38.70;17.40;;;6.10;99.90;;;;;;5964817;24;20039;-94
2022/11/29 22:44:26;;;;;;;29.60;13.73;;;5.70;99.90;;;;;;6162988;23;20068;-92
2022/11/29 22:59:02;;;;;;;30.17;14.73;;;5.60;99.90;;;;;;6139104;23;20021;-93
2022/11/29 23:01:32;;;;;;;28.03;14.77;;;5.70;99.90;;;;;;6129299;23;20051;-92
2022/11/29 23:04:04;;;;;;;31.43;15.97;;;6.20;99.90;;;;;;6130769;23;20105;-92
2022/11/29 23:06:38;;;;;;;30.70;15.23;;;6.10;99.90;;;;;;6156465;23;20013;-92
2022/11/29 23:13:31;;;;;;;32.30;15.87;;;5.50;99.90;;;;;;6179352;22;20015;-93
2022/11/29 23:16:48;;;;;;;32.03;15.80;;;6.10;99.90;;;;;;6280697;22;20012;-93
2022/11/29 23:27:53;;;;;;;;;;;;;;;;;;;;;
2022/11/29 23:38:42;;;;;;;;;;;;;;;;;;;;;
